sensor_id;sensor_type;location;lat;lon;timestamp;P1;durP1;ratioP1;P2;durP2;ratioP2
35578;SDS011;21687;48.900;9.188;2023-01-25T00:01:58;32.27;;;16.93;;
35578;SDS011;21687;48.900;9.188;2023-01-25T00:04:25;32.53;;;16.33;;
35578;SDS011;21687;48.900;9.188;2023-01-25T00:06:51;27.87;;;17.27;;
35578;SDS011;21687;48.900;9.188;2023-01-25T00:09:18;29.87;;;17.20;;
35578;SDS011;21687;48.900;9.188;2023-01-25T00:11:45;29.90;;;16.67;;
35578;SDS011;21687;48.900;9.188;2023-01-25T00:14:12;28.80;;;17.73;;
35578;SDS011;21687;48.900;9.188;2023-01-25T00:16:39;30.37;;;17.30;;
35578;SDS011;21687;48.900;9.188;2023-01-25T00:19:07;26.57;;;16.53;;
35578;SDS011;21687;48.900;9.188;2023-01-25T00:21:34;30.33;;;16.33;;
35578;SDS011;21687;48.900;9.188;2023-01-25T00:24:01;28.07;;;16.00;;
35578;SDS011;21687;48.900;9.188;2023-01-25T00:26:28;30.90;;;16.10;;
35578;SDS011;21687;48.900;9.188;2023-01-25T00:28:55;28.70;;;17.93;;
35578;SDS011;21687;48.900;9.188;2023-01-25T00:36:48;28.67;;;16.73;;
35578;SDS011;21687;48.900;9.188;2023-01-25T00:39:26;29.80;;;16.67;;
35578;SDS011;21687;48.900;9.188;2023-01-25T00:41:53;29.63;;;17.50;;
35578;SDS011;21687;48.900;9.188;2023-01-25T00:44:20;32.87;;;17.90;;
35578;SDS011;21687;48.900;9.188;2023-01-25T00:46:46;32.70;;;17.03;;
35578;SDS011;21687;48.900;9.188;2023-01-25T00:49:30;31.67;;;17.53;;
35578;SDS011;21687;48.900;9.188;2023-01-25T00:51:57;34.20;;;18.57;;
35578;SDS011;21687;48.900;9.188;2023-01-25T00:54:24;32.57;;;18.27;;
35578;SDS011;21687;48.900;9.188;2023-01-25T00:56:51;35.17;;;18.80;;
35578;SDS011;21687;48.900;9.188;2023-01-25T00:59:17;29.77;;;17.27;;
35578;SDS011;21687;48.900;9.188;2023-01-25T01:01:44;35.80;;;18.53;;
35578;SDS011;21687;48.900;9.188;2023-01-25T01:04:10;31.90;;;18.27;;
35578;SDS011;21687;48.900;9.188;2023-01-25T01:06:37;32.43;;;18.03;;
35578;SDS011;21687;48.900;9.188;2023-01-25T01:09:05;35.03;;;18.13;;
35578;SDS011;21687;48.900;9.188;2023-01-25T01:11:32;39.10;;;19.43;;
35578;SDS011;21687;48.900;9.188;2023-01-25T01:13:58;31.33;;;18.50;;
35578;SDS011;21687;48.900;9.188;2023-01-25T01:16:25;31.17;;;18.33;;
35578;SDS011;21687;48.900;9.188;2023-01-25T01:18:52;35.43;;;19.10;;
35578;SDS011;21687;48.900;9.188;2023-01-25T01:21:18;30.33;;;17.87;;
35578;SDS011;21687;48.900;9.188;2023-01-25T01:23:45;32.50;;;18.77;;
35578;SDS011;21687;48.900;9.188;2023-01-25T01:26:13;35.47;;;19.00;;
35578;SDS011;21687;48.900;9.188;2023-01-25T01:28:41;36.50;;;19.63;;
35578;SDS011;21687;48.900;9.188;2023-01-25T01:31:09;36.37;;;19.37;;
35578;SDS011;21687;48.900;9.188;2023-01-25T01:33:40;34.97;;;18.97;;
35578;SDS011;21687;48.900;9.188;2023-01-25T01:36:15;36.47;;;18.90;;
35578;SDS011;21687;48.900;9.188;2023-01-25T01:38:43;40.13;;;20.07;;
35578;SDS011;21687;48.900;9.188;2023-01-25T01:41:10;37.83;;;19.70;;
35578;SDS011;21687;48.900;9.188;2023-01-25T01:43:37;38.07;;;20.87;;
35578;SDS011;21687;48.900;9.188;2023-01-25T01:46:26;38.67;;;19.97;;
35578;SDS011;21687;48.900;9.188;2023-01-25T01:59:48;35.43;;;18.93;;
35578;SDS011;21687;48.900;9.188;2023-01-25T02:02:22;34.50;;;18.43;;
35578;SDS011;21687;48.900;9.188;2023-01-25T02:04:50;35.70;;;19.13;;
35578;SDS011;21687;48.900;9.188;2023-01-25T02:07:24;37.27;;;19.50;;
35578;SDS011;21687;48.900;9.188;2023-01-25T02:09:59;33.73;;;18.90;;
35578;SDS011;21687;48.900;9.188;2023-01-25T02:12:31;37.27;;;18.90;;
35578;SDS011;21687;48.900;9.188;2023-01-25T02:14:57;33.20;;;18.17;;
35578;SDS011;21687;48.900;9.188;2023-01-25T02:17:28;34.57;;;18.07;;
35578;SDS011;21687;48.900;9.188;2023-01-25T02:20:00;36.87;;;17.93;;
35578;SDS011;21687;48.900;9.188;2023-01-25T02:25:29;34.73;;;18.90;;
35578;SDS011;21687;48.900;9.188;2023-01-25T02:28:04;36.53;;;19.13;;
35578;SDS011;21687;48.900;9.188;2023-01-25T02:30:38;36.73;;;19.00;;
35578;SDS011;21687;48.900;9.188;2023-01-25T02:33:06;33.63;;;18.83;;
35578;SDS011;21687;48.900;9.188;2023-01-25T02:35:37;36.33;;;18.50;;
35578;SDS011;21687;48.900;9.188;2023-01-25T02:38:05;37.47;;;18.63;;
35578;SDS011;21687;48.900;9.188;2023-01-25T02:40:35;37.27;;;19.27;;
35578;SDS011;21687;48.900;9.188;2023-01-25T02:43:07;38.73;;;19.03;;
35578;SDS011;21687;48.900;9.188;2023-01-25T02:45:33;38.03;;;18.93;;
35578;SDS011;21687;48.900;9.188;2023-01-25T02:47:59;40.77;;;19.50;;
35578;SDS011;21687;48.900;9.188;2023-01-25T02:50:25;39.33;;;19.50;;
35578;SDS011;21687;48.900;9.188;2023-01-25T02:52:52;36.53;;;20.10;;
35578;SDS011;21687;48.900;9.188;2023-01-25T02:55:18;33.87;;;18.90;;
35578;SDS011;21687;48.900;9.188;2023-01-25T02:57:44;35.20;;;18.97;;
35578;SDS011;21687;48.900;9.188;2023-01-25T03:00:11;37.00;;;19.70;;
35578;SDS011;21687;48.900;9.188;2023-01-25T03:02:37;39.00;;;19.53;;
35578;SDS011;21687;48.900;9.188;2023-01-25T03:05:04;36.47;;;18.57;;
35578;SDS011;21687;48.900;9.188;2023-01-25T03:07:30;33.90;;;19.67;;
35578;SDS011;21687;48.900;9.188;2023-01-25T03:09:56;36.17;;;18.43;;
35578;SDS011;21687;48.900;9.188;2023-01-25T03:12:23;33.50;;;18.13;;
35578;SDS011;21687;48.900;9.188;2023-01-25T03:14:49;35.33;;;19.00;;
35578;SDS011;21687;48.900;9.188;2023-01-25T03:17:15;34.87;;;18.33;;
35578;SDS011;21687;48.900;9.188;2023-01-25T03:19:41;35.93;;;19.53;;
35578;SDS011;21687;48.900;9.188;2023-01-25T03:22:08;37.67;;;18.70;;
35578;SDS011;21687;48.900;9.188;2023-01-25T03:24:35;33.87;;;18.97;;
35578;SDS011;21687;48.900;9.188;2023-01-25T03:27:01;36.40;;;19.13;;
35578;SDS011;21687;48.900;9.188;2023-01-25T03:29:38;33.23;;;17.97;;
35578;SDS011;21687;48.900;9.188;2023-01-25T03:32:06;40.87;;;18.93;;
35578;SDS011;21687;48.900;9.188;2023-01-25T03:34:32;36.00;;;18.33;;
35578;SDS011;21687;48.900;9.188;2023-01-25T03:36:59;35.60;;;17.97;;
35578;SDS011;21687;48.900;9.188;2023-01-25T03:39:26;36.13;;;19.47;;
35578;SDS011;21687;48.900;9.188;2023-01-25T03:41:53;34.00;;;18.47;;
35578;SDS011;21687;48.900;9.188;2023-01-25T03:44:19;37.60;;;18.23;;
35578;SDS011;21687;48.900;9.188;2023-01-25T03:46:46;33.40;;;18.20;;
35578;SDS011;21687;48.900;9.188;2023-01-25T03:49:12;34.83;;;18.60;;
35578;SDS011;21687;48.900;9.188;2023-01-25T03:51:38;37.17;;;17.77;;
35578;SDS011;21687;48.900;9.188;2023-01-25T03:54:04;35.73;;;19.47;;
35578;SDS011;21687;48.900;9.188;2023-01-25T03:56:32;39.37;;;18.73;;
35578;SDS011;21687;48.900;9.188;2023-01-25T03:58:58;33.80;;;17.00;;
35578;SDS011;21687;48.900;9.188;2023-01-25T04:01:24;32.73;;;17.77;;
35578;SDS011;21687;48.900;9.188;2023-01-25T04:03:51;32.57;;;16.47;;
35578;SDS011;21687;48.900;9.188;2023-01-25T04:06:17;31.63;;;17.23;;
35578;SDS011;21687;48.900;9.188;2023-01-25T04:08:43;31.27;;;16.87;;
35578;SDS011;21687;48.900;9.188;2023-01-25T04:11:09;30.93;;;16.83;;
35578;SDS011;21687;48.900;9.188;2023-01-25T04:13:36;29.00;;;15.87;;
35578;SDS011;21687;48.900;9.188;2023-01-25T04:16:03;32.30;;;15.97;;
35578;SDS011;21687;48.900;9.188;2023-01-25T04:18:31;31.20;;;16.00;;
35578;SDS011;21687;48.900;9.188;2023-01-25T04:20:57;24.67;;;14.67;;
35578;SDS011;21687;48.900;9.188;2023-01-25T04:23:24;29.93;;;16.90;;
35578;SDS011;21687;48.900;9.188;2023-01-25T04:26:00;29.33;;;15.50;;
35578;SDS011;21687;48.900;9.188;2023-01-25T04:28:30;27.93;;;14.73;;
35578;SDS011;21687;48.900;9.188;2023-01-25T04:30:58;25.97;;;14.93;;
35578;SDS011;21687;48.900;9.188;2023-01-25T04:33:24;26.00;;;14.50;;
35578;SDS011;21687;48.900;9.188;2023-01-25T04:35:51;24.87;;;14.57;;
35578;SDS011;21687;48.900;9.188;2023-01-25T04:38:17;25.57;;;15.03;;
35578;SDS011;21687;48.900;9.188;2023-01-25T04:40:44;22.73;;;13.67;;
35578;SDS011;21687;48.900;9.188;2023-01-25T04:43:14;24.90;;;13.77;;
35578;SDS011;21687;48.900;9.188;2023-01-25T04:45:41;25.87;;;14.50;;
35578;SDS011;21687;48.900;9.188;2023-01-25T04:48:08;25.10;;;14.43;;
35578;SDS011;21687;48.900;9.188;2023-01-25T04:50:36;24.20;;;14.23;;
35578;SDS011;21687;48.900;9.188;2023-01-25T04:53:03;24.63;;;14.33;;
35578;SDS011;21687;48.900;9.188;2023-01-25T04:55:30;24.87;;;14.50;;
35578;SDS011;21687;48.900;9.188;2023-01-25T04:57:58;22.47;;;13.43;;
35578;SDS011;21687;48.900;9.188;2023-01-25T05:00:24;20.87;;;12.87;;
35578;SDS011;21687;48.900;9.188;2023-01-25T05:02:53;25.00;;;13.83;;
35578;SDS011;21687;48.900;9.188;2023-01-25T05:05:19;24.17;;;13.20;;
35578;SDS011;21687;48.900;9.188;2023-01-25T05:07:45;23.63;;;13.07;;
35578;SDS011;21687;48.900;9.188;2023-01-25T05:10:11;23.53;;;14.17;;
35578;SDS011;21687;48.900;9.188;2023-01-25T05:12:38;22.10;;;13.47;;
35578;SDS011;21687;48.900;9.188;2023-01-25T05:15:04;19.80;;;12.40;;
35578;SDS011;21687;48.900;9.188;2023-01-25T05:17:31;23.00;;;12.47;;
35578;SDS011;21687;48.900;9.188;2023-01-25T05:19:57;21.43;;;13.43;;
35578;SDS011;21687;48.900;9.188;2023-01-25T05:22:24;19.77;;;12.13;;
35578;SDS011;21687;48.900;9.188;2023-01-25T05:24:50;16.67;;;11.07;;
35578;SDS011;21687;48.900;9.188;2023-01-25T05:27:17;18.67;;;11.57;;
35578;SDS011;21687;48.900;9.188;2023-01-25T05:29:44;17.20;;;11.37;;
35578;SDS011;21687;48.900;9.188;2023-01-25T05:32:15;19.80;;;10.70;;
35578;SDS011;21687;48.900;9.188;2023-01-25T05:34:43;18.63;;;11.93;;
35578;SDS011;21687;48.900;9.188;2023-01-25T05:37:11;17.00;;;10.33;;
35578;SDS011;21687;48.900;9.188;2023-01-25T05:39:39;19.23;;;11.00;;
35578;SDS011;21687;48.900;9.188;2023-01-25T05:42:09;17.23;;;11.07;;
35578;SDS011;21687;48.900;9.188;2023-01-25T05:44:41;16.23;;;10.37;;
35578;SDS011;21687;48.900;9.188;2023-01-25T05:47:12;16.83;;;10.63;;
35578;SDS011;21687;48.900;9.188;2023-01-25T05:49:40;20.43;;;10.87;;
35578;SDS011;21687;48.900;9.188;2023-01-25T05:52:07;16.17;;;10.60;;
35578;SDS011;21687;48.900;9.188;2023-01-25T05:54:39;15.93;;;10.30;;
35578;SDS011;21687;48.900;9.188;2023-01-25T05:57:05;16.70;;;10.00;;
35578;SDS011;21687;48.900;9.188;2023-01-25T05:59:32;16.00;;;10.03;;
35578;SDS011;21687;48.900;9.188;2023-01-25T06:01:58;14.23;;;9.47;;
35578;SDS011;21687;48.900;9.188;2023-01-25T06:04:24;14.77;;;10.30;;
35578;SDS011;21687;48.900;9.188;2023-01-25T06:06:50;16.23;;;10.47;;
35578;SDS011;21687;48.900;9.188;2023-01-25T06:09:17;15.30;;;9.07;;
35578;SDS011;21687;48.900;9.188;2023-01-25T06:11:43;13.20;;;9.23;;
35578;SDS011;21687;48.900;9.188;2023-01-25T06:14:09;14.40;;;9.33;;
35578;SDS011;21687;48.900;9.188;2023-01-25T06:16:36;15.67;;;9.43;;
35578;SDS011;21687;48.900;9.188;2023-01-25T06:19:06;14.73;;;9.57;;
35578;SDS011;21687;48.900;9.188;2023-01-25T06:21:33;14.27;;;8.73;;
35578;SDS011;21687;48.900;9.188;2023-01-25T06:24:01;14.43;;;9.63;;
35578;SDS011;21687;48.900;9.188;2023-01-25T06:26:28;15.13;;;9.30;;
35578;SDS011;21687;48.900;9.188;2023-01-25T06:28:54;14.07;;;9.63;;
35578;SDS011;21687;48.900;9.188;2023-01-25T06:31:20;15.10;;;9.20;;
35578;SDS011;21687;48.900;9.188;2023-01-25T06:33:48;15.43;;;10.60;;
35578;SDS011;21687;48.900;9.188;2023-01-25T06:36:16;15.07;;;9.87;;
35578;SDS011;21687;48.900;9.188;2023-01-25T06:38:46;15.67;;;9.47;;
35578;SDS011;21687;48.900;9.188;2023-01-25T06:41:14;16.77;;;10.07;;
35578;SDS011;21687;48.900;9.188;2023-01-25T06:43:41;13.80;;;9.13;;
35578;SDS011;21687;48.900;9.188;2023-01-25T06:46:08;15.77;;;9.77;;
35578;SDS011;21687;48.900;9.188;2023-01-25T06:48:38;17.27;;;9.70;;
35578;SDS011;21687;48.900;9.188;2023-01-25T06:51:07;17.40;;;10.37;;
35578;SDS011;21687;48.900;9.188;2023-01-25T06:53:38;14.47;;;9.50;;
35578;SDS011;21687;48.900;9.188;2023-01-25T06:56:07;16.53;;;9.37;;
35578;SDS011;21687;48.900;9.188;2023-01-25T06:58:37;14.70;;;9.80;;
35578;SDS011;21687;48.900;9.188;2023-01-25T07:01:05;13.90;;;9.33;;
35578;SDS011;21687;48.900;9.188;2023-01-25T07:03:35;12.43;;;8.80;;
35578;SDS011;21687;48.900;9.188;2023-01-25T07:06:02;15.07;;;8.90;;
35578;SDS011;21687;48.900;9.188;2023-01-25T07:08:31;13.30;;;8.73;;
35578;SDS011;21687;48.900;9.188;2023-01-25T07:11:02;13.57;;;8.97;;
35578;SDS011;21687;48.900;9.188;2023-01-25T07:13:30;13.23;;;8.77;;
35578;SDS011;21687;48.900;9.188;2023-01-25T07:16:02;16.73;;;8.87;;
35578;SDS011;21687;48.900;9.188;2023-01-25T07:18:30;14.30;;;9.10;;
35578;SDS011;21687;48.900;9.188;2023-01-25T07:21:03;15.23;;;9.93;;
35578;SDS011;21687;48.900;9.188;2023-01-25T07:23:32;13.47;;;8.80;;
35578;SDS011;21687;48.900;9.188;2023-01-25T07:25:59;13.83;;;8.70;;
35578;SDS011;21687;48.900;9.188;2023-01-25T07:28:26;14.90;;;9.20;;
35578;SDS011;21687;48.900;9.188;2023-01-25T07:30:52;14.43;;;9.03;;
35578;SDS011;21687;48.900;9.188;2023-01-25T07:33:18;13.33;;;8.57;;
35578;SDS011;21687;48.900;9.188;2023-01-25T07:35:45;18.03;;;9.03;;
35578;SDS011;21687;48.900;9.188;2023-01-25T07:38:12;17.00;;;10.13;;
35578;SDS011;21687;48.900;9.188;2023-01-25T07:40:38;14.67;;;9.40;;
35578;SDS011;21687;48.900;9.188;2023-01-25T07:43:04;13.70;;;8.90;;
35578;SDS011;21687;48.900;9.188;2023-01-25T07:45:30;14.80;;;9.07;;
35578;SDS011;21687;48.900;9.188;2023-01-25T07:47:57;14.43;;;8.83;;
35578;SDS011;21687;48.900;9.188;2023-01-25T07:50:24;13.10;;;8.87;;
35578;SDS011;21687;48.900;9.188;2023-01-25T07:52:51;12.47;;;8.47;;
35578;SDS011;21687;48.900;9.188;2023-01-25T07:55:18;14.43;;;9.97;;
35578;SDS011;21687;48.900;9.188;2023-01-25T07:57:45;14.67;;;9.37;;
35578;SDS011;21687;48.900;9.188;2023-01-25T08:00:11;14.90;;;8.70;;
35578;SDS011;21687;48.900;9.188;2023-01-25T08:02:39;16.30;;;9.30;;
35578;SDS011;21687;48.900;9.188;2023-01-25T08:05:05;12.47;;;8.20;;
35578;SDS011;21687;48.900;9.188;2023-01-25T08:07:32;12.93;;;8.53;;
35578;SDS011;21687;48.900;9.188;2023-01-25T08:09:58;13.80;;;8.83;;
35578;SDS011;21687;48.900;9.188;2023-01-25T08:12:24;13.77;;;8.43;;
35578;SDS011;21687;48.900;9.188;2023-01-25T08:14:52;13.07;;;8.43;;
35578;SDS011;21687;48.900;9.188;2023-01-25T08:17:18;15.83;;;9.13;;
35578;SDS011;21687;48.900;9.188;2023-01-25T08:19:44;12.60;;;8.53;;
35578;SDS011;21687;48.900;9.188;2023-01-25T08:22:10;11.87;;;7.40;;
35578;SDS011;21687;48.900;9.188;2023-01-25T08:24:37;14.67;;;8.90;;
35578;SDS011;21687;48.900;9.188;2023-01-25T08:27:04;14.40;;;8.60;;
35578;SDS011;21687;48.900;9.188;2023-01-25T08:29:30;13.90;;;8.37;;
35578;SDS011;21687;48.900;9.188;2023-01-25T08:31:56;11.87;;;8.10;;
35578;SDS011;21687;48.900;9.188;2023-01-25T08:34:22;14.40;;;8.33;;
35578;SDS011;21687;48.900;9.188;2023-01-25T08:36:49;10.87;;;7.57;;
35578;SDS011;21687;48.900;9.188;2023-01-25T08:39:15;13.20;;;8.17;;
35578;SDS011;21687;48.900;9.188;2023-01-25T08:41:42;14.00;;;8.00;;
35578;SDS011;21687;48.900;9.188;2023-01-25T08:44:09;13.37;;;7.37;;
35578;SDS011;21687;48.900;9.188;2023-01-25T08:46:36;10.93;;;7.90;;
35578;SDS011;21687;48.900;9.188;2023-01-25T08:49:02;12.87;;;7.93;;
35578;SDS011;21687;48.900;9.188;2023-01-25T08:51:29;10.67;;;7.27;;
35578;SDS011;21687;48.900;9.188;2023-01-25T08:54:04;9.47;;;7.30;;
35578;SDS011;21687;48.900;9.188;2023-01-25T08:56:32;12.57;;;7.70;;
35578;SDS011;21687;48.900;9.188;2023-01-25T08:59:00;12.10;;;7.37;;
35578;SDS011;21687;48.900;9.188;2023-01-25T09:01:27;12.90;;;8.10;;
35578;SDS011;21687;48.900;9.188;2023-01-25T09:03:53;12.33;;;7.60;;
35578;SDS011;21687;48.900;9.188;2023-01-25T09:06:19;11.67;;;7.90;;
35578;SDS011;21687;48.900;9.188;2023-01-25T09:08:46;13.73;;;8.30;;
35578;SDS011;21687;48.900;9.188;2023-01-25T09:11:14;13.03;;;8.30;;
35578;SDS011;21687;48.900;9.188;2023-01-25T09:13:43;14.53;;;8.63;;
35578;SDS011;21687;48.900;9.188;2023-01-25T09:16:10;13.13;;;8.37;;
35578;SDS011;21687;48.900;9.188;2023-01-25T09:18:39;14.50;;;8.67;;
35578;SDS011;21687;48.900;9.188;2023-01-25T09:21:07;16.50;;;8.13;;
35578;SDS011;21687;48.900;9.188;2023-01-25T09:23:35;12.73;;;8.10;;
35578;SDS011;21687;48.900;9.188;2023-01-25T09:26:02;13.17;;;8.67;;
35578;SDS011;21687;48.900;9.188;2023-01-25T09:28:29;14.47;;;8.13;;
35578;SDS011;21687;48.900;9.188;2023-01-25T09:30:57;13.73;;;8.30;;
35578;SDS011;21687;48.900;9.188;2023-01-25T09:33:30;13.30;;;8.70;;
35578;SDS011;21687;48.900;9.188;2023-01-25T09:35:58;13.30;;;8.40;;
35578;SDS011;21687;48.900;9.188;2023-01-25T09:38:24;14.20;;;9.00;;
35578;SDS011;21687;48.900;9.188;2023-01-25T09:46:42;15.20;;;8.70;;
35578;SDS011;21687;48.900;9.188;2023-01-25T09:49:30;15.00;;;8.53;;
35578;SDS011;21687;48.900;9.188;2023-01-25T09:54:39;16.93;;;9.57;;
35578;SDS011;21687;48.900;9.188;2023-01-25T09:57:16;12.27;;;8.40;;
35578;SDS011;21687;48.900;9.188;2023-01-25T09:59:54;14.70;;;8.97;;
35578;SDS011;21687;48.900;9.188;2023-01-25T10:02:39;12.63;;;8.63;;
35578;SDS011;21687;48.900;9.188;2023-01-25T10:05:14;14.17;;;8.83;;
35578;SDS011;21687;48.900;9.188;2023-01-25T10:10:34;12.87;;;8.73;;
35578;SDS011;21687;48.900;9.188;2023-01-25T10:13:12;12.40;;;8.73;;
35578;SDS011;21687;48.900;9.188;2023-01-25T10:15:42;14.03;;;9.40;;
35578;SDS011;21687;48.900;9.188;2023-01-25T10:21:34;12.07;;;8.47;;
35578;SDS011;21687;48.900;9.188;2023-01-25T10:26:55;13.70;;;8.30;;
35578;SDS011;21687;48.900;9.188;2023-01-25T10:29:28;12.87;;;8.37;;
35578;SDS011;21687;48.900;9.188;2023-01-25T10:34:47;15.53;;;8.77;;
35578;SDS011;21687;48.900;9.188;2023-01-25T10:37:20;14.53;;;9.37;;
35578;SDS011;21687;48.900;9.188;2023-01-25T10:42:18;15.30;;;8.90;;
35578;SDS011;21687;48.900;9.188;2023-01-25T10:44:46;17.50;;;9.33;;
35578;SDS011;21687;48.900;9.188;2023-01-25T10:47:26;17.47;;;10.00;;
35578;SDS011;21687;48.900;9.188;2023-01-25T10:49:57;15.53;;;9.67;;
35578;SDS011;21687;48.900;9.188;2023-01-25T10:52:28;14.63;;;8.77;;
35578;SDS011;21687;48.900;9.188;2023-01-25T10:57:42;13.63;;;9.00;;
35578;SDS011;21687;48.900;9.188;2023-01-25T11:03:01;16.97;;;9.80;;
35578;SDS011;21687;48.900;9.188;2023-01-25T11:05:29;15.83;;;9.30;;
35578;SDS011;21687;48.900;9.188;2023-01-25T11:08:25;14.30;;;8.90;;
35578;SDS011;21687;48.900;9.188;2023-01-25T11:10:56;12.83;;;8.90;;
35578;SDS011;21687;48.900;9.188;2023-01-25T11:13:27;15.67;;;9.70;;
35578;SDS011;21687;48.900;9.188;2023-01-25T11:18:29;16.43;;;9.60;;
35578;SDS011;21687;48.900;9.188;2023-01-25T11:26:31;14.57;;;8.87;;
35578;SDS011;21687;48.900;9.188;2023-01-25T11:29:19;15.10;;;9.10;;
35578;SDS011;21687;48.900;9.188;2023-01-25T11:31:48;15.97;;;8.67;;
35578;SDS011;21687;48.900;9.188;2023-01-25T11:34:19;16.80;;;10.57;;
35578;SDS011;21687;48.900;9.188;2023-01-25T11:51:37;18.80;;;11.07;;
35578;SDS011;21687;48.900;9.188;2023-01-25T12:10:56;14.67;;;8.47;;
35578;SDS011;21687;48.900;9.188;2023-01-25T12:16:39;14.57;;;8.93;;
35578;SDS011;21687;48.900;9.188;2023-01-25T12:19:31;14.47;;;9.07;;
35578;SDS011;21687;48.900;9.188;2023-01-25T12:22:09;13.80;;;8.80;;
35578;SDS011;21687;48.900;9.188;2023-01-25T12:30:41;19.60;;;10.87;;
35578;SDS011;21687;48.900;9.188;2023-01-25T12:38:37;19.40;;;11.27;;
35578;SDS011;21687;48.900;9.188;2023-01-25T12:44:24;15.53;;;10.00;;
35578;SDS011;21687;48.900;9.188;2023-01-25T12:49:52;16.60;;;9.60;;
35578;SDS011;21687;48.900;9.188;2023-01-25T12:52:26;16.17;;;9.80;;
35578;SDS011;21687;48.900;9.188;2023-01-25T12:54:59;17.97;;;10.80;;
35578;SDS011;21687;48.900;9.188;2023-01-25T13:03:27;20.37;;;11.53;;
35578;SDS011;21687;48.900;9.188;2023-01-25T13:06:17;16.87;;;10.20;;
35578;SDS011;21687;48.900;9.188;2023-01-25T13:09:00;14.70;;;10.07;;
35578;SDS011;21687;48.900;9.188;2023-01-25T13:11:43;16.93;;;10.33;;
35578;SDS011;21687;48.900;9.188;2023-01-25T13:16:46;17.57;;;10.07;;
35578;SDS011;21687;48.900;9.188;2023-01-25T13:19:18;20.87;;;11.70;;
35578;SDS011;21687;48.900;9.188;2023-01-25T13:21:54;20.23;;;11.83;;
35578;SDS011;21687;48.900;9.188;2023-01-25T13:32:04;19.17;;;10.67;;
35578;SDS011;21687;48.900;9.188;2023-01-25T13:37:22;18.73;;;11.07;;
35578;SDS011;21687;48.900;9.188;2023-01-25T13:39:53;20.00;;;11.60;;
35578;SDS011;21687;48.900;9.188;2023-01-25T13:42:26;23.17;;;11.97;;
35578;SDS011;21687;48.900;9.188;2023-01-25T13:44:56;18.07;;;11.17;;
35578;SDS011;21687;48.900;9.188;2023-01-25T13:47:28;19.63;;;11.33;;
35578;SDS011;21687;48.900;9.188;2023-01-25T13:55:46;21.23;;;12.03;;
35578;SDS011;21687;48.900;9.188;2023-01-25T13:58:22;22.17;;;11.83;;
35578;SDS011;21687;48.900;9.188;2023-01-25T14:01:16;22.00;;;12.23;;
35578;SDS011;21687;48.900;9.188;2023-01-25T14:03:51;23.07;;;13.13;;
35578;SDS011;21687;48.900;9.188;2023-01-25T14:06:26;19.87;;;12.60;;
35578;SDS011;21687;48.900;9.188;2023-01-25T14:08:57;23.27;;;13.53;;
35578;SDS011;21687;48.900;9.188;2023-01-25T14:11:28;21.47;;;12.93;;
35578;SDS011;21687;48.900;9.188;2023-01-25T14:16:45;21.57;;;13.50;;
35578;SDS011;21687;48.900;9.188;2023-01-25T14:19:25;23.50;;;13.87;;
35578;SDS011;21687;48.900;9.188;2023-01-25T14:22:27;22.87;;;13.00;;
35578;SDS011;21687;48.900;9.188;2023-01-25T14:27:36;26.00;;;14.70;;
35578;SDS011;21687;48.900;9.188;2023-01-25T14:30:14;24.90;;;15.40;;
35578;SDS011;21687;48.900;9.188;2023-01-25T14:32:41;27.23;;;18.03;;
35578;SDS011;21687;48.900;9.188;2023-01-25T14:37:56;25.67;;;13.87;;
35578;SDS011;21687;48.900;9.188;2023-01-25T14:40:24;25.67;;;14.70;;
35578;SDS011;21687;48.900;9.188;2023-01-25T14:42:53;22.37;;;13.20;;
35578;SDS011;21687;48.900;9.188;2023-01-25T14:45:20;25.17;;;13.80;;
35578;SDS011;21687;48.900;9.188;2023-01-25T14:47:52;28.80;;;18.23;;
35578;SDS011;21687;48.900;9.188;2023-01-25T14:52:57;24.97;;;14.63;;
35578;SDS011;21687;48.900;9.188;2023-01-25T14:55:33;24.03;;;13.53;;
35578;SDS011;21687;48.900;9.188;2023-01-25T14:58:01;26.47;;;15.10;;
35578;SDS011;21687;48.900;9.188;2023-01-25T15:00:28;26.67;;;14.87;;
35578;SDS011;21687;48.900;9.188;2023-01-25T15:03:05;26.90;;;15.03;;
35578;SDS011;21687;48.900;9.188;2023-01-25T15:05:43;23.53;;;13.97;;
35578;SDS011;21687;48.900;9.188;2023-01-25T15:10:54;22.53;;;13.77;;
35578;SDS011;21687;48.900;9.188;2023-01-25T15:13:23;26.03;;;14.63;;
35578;SDS011;21687;48.900;9.188;2023-01-25T15:16:00;24.27;;;13.60;;
35578;SDS011;21687;48.900;9.188;2023-01-25T15:21:15;22.30;;;12.97;;
35578;SDS011;21687;48.900;9.188;2023-01-25T15:23:44;26.87;;;14.40;;
35578;SDS011;21687;48.900;9.188;2023-01-25T15:28:42;27.80;;;16.13;;
35578;SDS011;21687;48.900;9.188;2023-01-25T15:31:11;31.13;;;18.03;;
35578;SDS011;21687;48.900;9.188;2023-01-25T15:33:54;26.20;;;15.97;;
35578;SDS011;21687;48.900;9.188;2023-01-25T15:36:20;33.43;;;19.30;;
35578;SDS011;21687;48.900;9.188;2023-01-25T15:38:47;28.00;;;17.57;;
35578;SDS011;21687;48.900;9.188;2023-01-25T15:41:13;28.13;;;16.60;;
35578;SDS011;21687;48.900;9.188;2023-01-25T15:43:42;28.73;;;17.23;;
35578;SDS011;21687;48.900;9.188;2023-01-25T15:46:12;32.73;;;18.47;;
35578;SDS011;21687;48.900;9.188;2023-01-25T15:48:46;28.47;;;16.67;;
35578;SDS011;21687;48.900;9.188;2023-01-25T15:51:13;30.03;;;17.53;;
35578;SDS011;21687;48.900;9.188;2023-01-25T15:53:40;29.77;;;18.20;;
35578;SDS011;21687;48.900;9.188;2023-01-25T15:56:50;32.07;;;18.57;;
35578;SDS011;21687;48.900;9.188;2023-01-25T15:58:59;28.20;;;16.57;;
35578;SDS011;21687;48.900;9.188;2023-01-25T16:01:29;31.37;;;18.67;;
35578;SDS011;21687;48.900;9.188;2023-01-25T16:03:56;32.03;;;18.57;;
35578;SDS011;21687;48.900;9.188;2023-01-25T16:06:26;33.30;;;18.83;;
35578;SDS011;21687;48.900;9.188;2023-01-25T16:11:46;32.60;;;18.10;;
35578;SDS011;21687;48.900;9.188;2023-01-25T16:14:18;32.80;;;19.03;;
35578;SDS011;21687;48.900;9.188;2023-01-25T16:16:48;30.17;;;17.30;;
35578;SDS011;21687;48.900;9.188;2023-01-25T16:19:19;29.60;;;17.53;;
35578;SDS011;21687;48.900;9.188;2023-01-25T16:21:48;32.03;;;18.10;;
35578;SDS011;21687;48.900;9.188;2023-01-25T16:24:15;31.73;;;18.10;;
35578;SDS011;21687;48.900;9.188;2023-01-25T16:26:47;33.03;;;18.07;;
35578;SDS011;21687;48.900;9.188;2023-01-25T16:29:18;35.20;;;20.33;;
35578;SDS011;21687;48.900;9.188;2023-01-25T16:31:47;31.53;;;19.77;;
35578;SDS011;21687;48.900;9.188;2023-01-25T16:34:16;34.90;;;19.37;;
35578;SDS011;21687;48.900;9.188;2023-01-25T16:36:44;36.90;;;20.47;;
35578;SDS011;21687;48.900;9.188;2023-01-25T16:39:18;34.00;;;19.17;;
35578;SDS011;21687;48.900;9.188;2023-01-25T16:41:47;32.17;;;19.47;;
35578;SDS011;21687;48.900;9.188;2023-01-25T16:44:13;34.07;;;19.57;;
35578;SDS011;21687;48.900;9.188;2023-01-25T16:46:40;36.43;;;20.67;;
35578;SDS011;21687;48.900;9.188;2023-01-25T16:49:08;35.57;;;20.20;;
35578;SDS011;21687;48.900;9.188;2023-01-25T16:51:40;34.83;;;19.00;;
35578;SDS011;21687;48.900;9.188;2023-01-25T16:54:07;31.60;;;18.43;;
35578;SDS011;21687;48.900;9.188;2023-01-25T16:56:36;30.53;;;17.57;;
35578;SDS011;21687;48.900;9.188;2023-01-25T16:59:03;33.10;;;18.50;;
35578;SDS011;21687;48.900;9.188;2023-01-25T17:01:31;35.63;;;19.77;;
35578;SDS011;21687;48.900;9.188;2023-01-25T17:03:57;36.47;;;20.10;;
35578;SDS011;21687;48.900;9.188;2023-01-25T17:06:24;34.20;;;18.80;;
35578;SDS011;21687;48.900;9.188;2023-01-25T17:08:57;33.77;;;18.17;;
35578;SDS011;21687;48.900;9.188;2023-01-25T17:11:24;65.10;;;29.80;;
35578;SDS011;21687;48.900;9.188;2023-01-25T17:13:52;44.87;;;22.67;;